sensor_id;sensor_type;location;lat;lon;timestamp;temperature;humidity
12123;DHT22;6125;59.628;17.852;2023-03-14T00:01:57;5.50;99.90
12123;DHT22;6125;59.628;17.852;2023-03-14T00:04:25;5.50;99.90
12123;DHT22;6125;59.628;17.852;2023-03-14T00:06:52;5.50;99.90
12123;DHT22;6125;59.628;17.852;2023-03-14T00:09:20;5.50;99.90
12123;DHT22;6125;59.628;17.852;2023-03-14T00:11:47;5.50;99.90
12123;DHT22;6125;59.628;17.852;2023-03-14T00:14:14;5.50;99.90
12123;DHT22;6125;59.628;17.852;2023-03-14T00:16:45;5.50;99.90
12123;DHT22;6125;59.628;17.852;2023-03-14T00:19:12;5.50;99.90
12123;DHT22;6125;59.628;17.852;2023-03-14T00:21:39;5.50;99.90
12123;DHT22;6125;59.628;17.852;2023-03-14T00:24:07;5.60;99.90
12123;DHT22;6125;59.628;17.852;2023-03-14T00:26:35;5.60;99.90
12123;DHT22;6125;59.628;17.852;2023-03-14T00:29:02;5.60;99.90
12123;DHT22;6125;59.628;17.852;2023-03-14T00:31:30;5.60;99.90
12123;DHT22;6125;59.628;17.852;2023-03-14T00:33:57;5.60;99.90
12123;DHT22;6125;59.628;17.852;2023-03-14T00:36:24;5.60;99.90
12123;DHT22;6125;59.628;17.852;2023-03-14T00:38:51;5.60;99.90
12123;DHT22;6125;59.628;17.852;2023-03-14T00:41:20;5.70;99.90
12123;DHT22;6125;59.628;17.852;2023-03-14T00:43:50;5.70;99.90
12123;DHT22;6125;59.628;17.852;2023-03-14T00:46:17;5.70;99.90
12123;DHT22;6125;59.628;17.852;2023-03-14T00:48:45;5.60;99.90
12123;DHT22;6125;59.628;17.852;2023-03-14T00:51:12;5.60;99.90
12123;DHT22;6125;59.628;17.852;2023-03-14T00:53:41;5.70;99.90
12123;DHT22;6125;59.628;17.852;2023-03-14T00:56:10;5.70;99.90
12123;DHT22;6125;59.628;17.852;2023-03-14T00:58:38;5.70;99.90
12123;DHT22;6125;59.628;17.852;2023-03-14T01:01:08;5.70;99.90
12123;DHT22;6125;59.628;17.852;2023-03-14T01:03:36;5.70;99.90
12123;DHT22;6125;59.628;17.852;2023-03-14T01:06:11;5.70;99.90
12123;DHT22;6125;59.628;17.852;2023-03-14T01:08:39;5.80;99.90
12123;DHT22;6125;59.628;17.852;2023-03-14T01:11:08;5.70;99.90
12123;DHT22;6125;59.628;17.852;2023-03-14T01:13:36;5.70;99.90
12123;DHT22;6125;59.628;17.852;2023-03-14T01:16:04;5.80;99.90
12123;DHT22;6125;59.628;17.852;2023-03-14T01:18:34;5.80;99.90
12123;DHT22;6125;59.628;17.852;2023-03-14T01:21:01;5.80;99.90
12123;DHT22;6125;59.628;17.852;2023-03-14T01:23:28;5.80;99.90
12123;DHT22;6125;59.628;17.852;2023-03-14T01:25:55;5.80;99.90
12123;DHT22;6125;59.628;17.852;2023-03-14T01:28:22;5.80;99.90
12123;DHT22;6125;59.628;17.852;2023-03-14T01:30:49;5.80;99.90
12123;DHT22;6125;59.628;17.852;2023-03-14T01:33:16;5.80;99.90
12123;DHT22;6125;59.628;17.852;2023-03-14T01:35:45;5.80;99.90
12123;DHT22;6125;59.628;17.852;2023-03-14T01:38:12;5.80;99.90
12123;DHT22;6125;59.628;17.852;2023-03-14T01:40:42;5.80;99.90
12123;DHT22;6125;59.628;17.852;2023-03-14T01:43:15;5.80;99.90
12123;DHT22;6125;59.628;17.852;2023-03-14T01:48:50;5.90;99.90
12123;DHT22;6125;59.628;17.852;2023-03-14T01:51:21;5.80;99.90
12123;DHT22;6125;59.628;17.852;2023-03-14T01:53:53;5.80;99.90
12123;DHT22;6125;59.628;17.852;2023-03-14T01:56:21;5.80;99.90
12123;DHT22;6125;59.628;17.852;2023-03-14T01:58:51;5.80;99.90
12123;DHT22;6125;59.628;17.852;2023-03-14T02:01:21;5.80;99.90
12123;DHT22;6125;59.628;17.852;2023-03-14T02:03:53;5.80;99.90
12123;DHT22;6125;59.628;17.852;2023-03-14T02:06:25;5.80;99.90
12123;DHT22;6125;59.628;17.852;2023-03-14T02:08:53;5.80;99.90
12123;DHT22;6125;59.628;17.852;2023-03-14T02:11:21;5.90;99.90
12123;DHT22;6125;59.628;17.852;2023-03-14T02:13:48;5.90;99.90
12123;DHT22;6125;59.628;17.852;2023-03-14T02:16:16;5.90;99.90
12123;DHT22;6125;59.628;17.852;2023-03-14T02:18:43;5.90;99.90
12123;DHT22;6125;59.628;17.852;2023-03-14T02:21:16;5.90;99.90
12123;DHT22;6125;59.628;17.852;2023-03-14T02:23:56;5.90;99.90
12123;DHT22;6125;59.628;17.852;2023-03-14T02:26:28;5.90;99.90
12123;DHT22;6125;59.628;17.852;2023-03-14T02:28:59;5.90;99.90
12123;DHT22;6125;59.628;17.852;2023-03-14T02:31:27;5.90;99.90
12123;DHT22;6125;59.628;17.852;2023-03-14T02:33:54;5.90;99.90
12123;DHT22;6125;59.628;17.852;2023-03-14T02:36:23;5.90;99.90
12123;DHT22;6125;59.628;17.852;2023-03-14T02:38:55;5.90;99.90
12123;DHT22;6125;59.628;17.852;2023-03-14T02:41:25;5.80;99.90
12123;DHT22;6125;59.628;17.852;2023-03-14T02:43:52;5.90;99.90
12123;DHT22;6125;59.628;17.852;2023-03-14T02:46:21;5.90;99.90
12123;DHT22;6125;59.628;17.852;2023-03-14T02:48:51;5.90;99.90
12123;DHT22;6125;59.628;17.852;2023-03-14T02:51:18;5.90;99.90
12123;DHT22;6125;59.628;17.852;2023-03-14T02:53:46;5.90;99.90
12123;DHT22;6125;59.628;17.852;2023-03-14T02:56:13;5.90;99.90
12123;DHT22;6125;59.628;17.852;2023-03-14T02:58:40;5.90;99.90
12123;DHT22;6125;59.628;17.852;2023-03-14T03:01:07;5.90;99.90
12123;DHT22;6125;59.628;17.852;2023-03-14T03:03:35;6.00;99.90
12123;DHT22;6125;59.628;17.852;2023-03-14T03:06:03;6.00;99.90
12123;DHT22;6125;59.628;17.852;2023-03-14T03:08:31;6.00;99.90
12123;DHT22;6125;59.628;17.852;2023-03-14T03:10:58;6.00;99.90
12123;DHT22;6125;59.628;17.852;2023-03-14T03:13:25;5.90;99.90
12123;DHT22;6125;59.628;17.852;2023-03-14T03:15:53;6.00;99.90
12123;DHT22;6125;59.628;17.852;2023-03-14T03:18:20;6.00;99.90
12123;DHT22;6125;59.628;17.852;2023-03-14T03:20:48;6.00;99.90
12123;DHT22;6125;59.628;17.852;2023-03-14T03:23:16;6.10;99.90
12123;DHT22;6125;59.628;17.852;2023-03-14T03:25:48;6.10;99.90
12123;DHT22;6125;59.628;17.852;2023-03-14T03:28:16;6.10;99.90
12123;DHT22;6125;59.628;17.852;2023-03-14T03:30:43;6.10;99.90
12123;DHT22;6125;59.628;17.852;2023-03-14T03:33:11;6.10;99.90
12123;DHT22;6125;59.628;17.852;2023-03-14T03:35:45;6.00;99.90
12123;DHT22;6125;59.628;17.852;2023-03-14T03:38:14;6.10;99.90
12123;DHT22;6125;59.628;17.852;2023-03-14T03:40:41;6.10;99.90
12123;DHT22;6125;59.628;17.852;2023-03-14T03:43:08;6.00;99.90
12123;DHT22;6125;59.628;17.852;2023-03-14T03:45:35;6.00;99.90
12123;DHT22;6125;59.628;17.852;2023-03-14T03:48:03;6.00;99.90
12123;DHT22;6125;59.628;17.852;2023-03-14T03:50:30;6.00;99.90
12123;DHT22;6125;59.628;17.852;2023-03-14T03:52:57;6.00;99.90
12123;DHT22;6125;59.628;17.852;2023-03-14T03:55:25;5.90;99.90
12123;DHT22;6125;59.628;17.852;2023-03-14T03:57:53;5.90;99.90
12123;DHT22;6125;59.628;17.852;2023-03-14T04:00:21;5.90;99.90
12123;DHT22;6125;59.628;17.852;2023-03-14T04:02:48;5.80;99.90
12123;DHT22;6125;59.628;17.852;2023-03-14T04:05:15;5.80;99.90
12123;DHT22;6125;59.628;17.852;2023-03-14T04:07:42;5.80;99.90
12123;DHT22;6125;59.628;17.852;2023-03-14T04:10:10;5.70;99.90
12123;DHT22;6125;59.628;17.852;2023-03-14T04:12:38;5.70;99.90
12123;DHT22;6125;59.628;17.852;2023-03-14T04:15:06;5.70;99.90
12123;DHT22;6125;59.628;17.852;2023-03-14T04:17:34;5.70;99.90
12123;DHT22;6125;59.628;17.852;2023-03-14T04:20:01;5.60;99.90
12123;DHT22;6125;59.628;17.852;2023-03-14T04:22:28;5.60;99.90
12123;DHT22;6125;59.628;17.852;2023-03-14T04:24:55;5.60;99.90
12123;DHT22;6125;59.628;17.852;2023-03-14T04:27:22;5.50;99.90
12123;DHT22;6125;59.628;17.852;2023-03-14T04:29:51;5.50;99.90
12123;DHT22;6125;59.628;17.852;2023-03-14T04:32:18;5.50;99.90
12123;DHT22;6125;59.628;17.852;2023-03-14T04:34:45;5.40;99.90
12123;DHT22;6125;59.628;17.852;2023-03-14T04:37:12;5.50;99.90
12123;DHT22;6125;59.628;17.852;2023-03-14T04:39:39;5.40;99.90
12123;DHT22;6125;59.628;17.852;2023-03-14T04:42:06;5.40;99.90
12123;DHT22;6125;59.628;17.852;2023-03-14T04:44:33;5.40;99.90
12123;DHT22;6125;59.628;17.852;2023-03-14T04:47:01;5.40;99.90
12123;DHT22;6125;59.628;17.852;2023-03-14T04:49:28;5.40;99.90
12123;DHT22;6125;59.628;17.852;2023-03-14T04:51:55;5.40;99.90
12123;DHT22;6125;59.628;17.852;2023-03-14T04:54:22;5.40;99.90
12123;DHT22;6125;59.628;17.852;2023-03-14T04:56:56;5.40;99.90
12123;DHT22;6125;59.628;17.852;2023-03-14T04:59:23;5.40;99.90
12123;DHT22;6125;59.628;17.852;2023-03-14T05:01:50;5.40;99.90
12123;DHT22;6125;59.628;17.852;2023-03-14T05:04:18;5.30;99.90
12123;DHT22;6125;59.628;17.852;2023-03-14T05:06:45;5.30;99.90
12123;DHT22;6125;59.628;17.852;2023-03-14T05:09:12;5.30;99.90
12123;DHT22;6125;59.628;17.852;2023-03-14T05:11:40;5.30;99.90
12123;DHT22;6125;59.628;17.852;2023-03-14T05:14:07;5.30;99.90
12123;DHT22;6125;59.628;17.852;2023-03-14T05:16:34;5.20;99.90
12123;DHT22;6125;59.628;17.852;2023-03-14T05:19:01;5.20;99.90
12123;DHT22;6125;59.628;17.852;2023-03-14T05:21:30;5.20;99.90
12123;DHT22;6125;59.628;17.852;2023-03-14T05:23:57;5.20;99.90
12123;DHT22;6125;59.628;17.852;2023-03-14T05:26:24;5.10;99.90
12123;DHT22;6125;59.628;17.852;2023-03-14T05:28:51;5.10;99.90
12123;DHT22;6125;59.628;17.852;2023-03-14T05:31:18;5.10;99.90
12123;DHT22;6125;59.628;17.852;2023-03-14T05:33:45;5.10;99.90
12123;DHT22;6125;59.628;17.852;2023-03-14T05:36:12;5.10;99.90
12123;DHT22;6125;59.628;17.852;2023-03-14T05:38:41;5.10;99.90
12123;DHT22;6125;59.628;17.852;2023-03-14T05:41:08;5.10;99.90
12123;DHT22;6125;59.628;17.852;2023-03-14T05:43:35;5.10;99.90
12123;DHT22;6125;59.628;17.852;2023-03-14T05:46:02;5.10;99.90
12123;DHT22;6125;59.628;17.852;2023-03-14T05:48:29;5.10;99.90
12123;DHT22;6125;59.628;17.852;2023-03-14T05:50:56;5.00;99.90
12123;DHT22;6125;59.628;17.852;2023-03-14T05:53:25;5.10;99.90
12123;DHT22;6125;59.628;17.852;2023-03-14T05:55:54;5.00;99.90
12123;DHT22;6125;59.628;17.852;2023-03-14T05:58:21;5.00;99.90
12123;DHT22;6125;59.628;17.852;2023-03-14T06:00:49;5.10;99.90
12123;DHT22;6125;59.628;17.852;2023-03-14T06:03:17;5.00;99.90
12123;DHT22;6125;59.628;17.852;2023-03-14T06:05:44;5.10;99.90
12123;DHT22;6125;59.628;17.852;2023-03-14T06:08:11;5.10;99.90
12123;DHT22;6125;59.628;17.852;2023-03-14T06:10:38;5.10;99.90
12123;DHT22;6125;59.628;17.852;2023-03-14T06:13:06;5.10;99.90
12123;DHT22;6125;59.628;17.852;2023-03-14T06:15:33;5.00;99.90
12123;DHT22;6125;59.628;17.852;2023-03-14T06:18:01;5.00;99.90
12123;DHT22;6125;59.628;17.852;2023-03-14T06:20:28;5.00;99.90
12123;DHT22;6125;59.628;17.852;2023-03-14T06:22:55;5.00;99.90
12123;DHT22;6125;59.628;17.852;2023-03-14T06:25:22;5.00;99.90
12123;DHT22;6125;59.628;17.852;2023-03-14T06:27:50;5.00;99.90
12123;DHT22;6125;59.628;17.852;2023-03-14T06:30:19;5.00;99.90
12123;DHT22;6125;59.628;17.852;2023-03-14T06:32:46;5.00;99.90
12123;DHT22;6125;59.628;17.852;2023-03-14T06:35:13;4.90;99.90
12123;DHT22;6125;59.628;17.852;2023-03-14T06:37:40;4.90;99.90
12123;DHT22;6125;59.628;17.852;2023-03-14T06:40:08;4.90;99.90
12123;DHT22;6125;59.628;17.852;2023-03-14T06:42:43;4.80;99.90
12123;DHT22;6125;59.628;17.852;2023-03-14T06:45:10;4.90;99.90
12123;DHT22;6125;59.628;17.852;2023-03-14T06:47:39;4.80;99.90
12123;DHT22;6125;59.628;17.852;2023-03-14T06:50:08;4.80;99.90
12123;DHT22;6125;59.628;17.852;2023-03-14T06:52:36;4.80;99.90
12123;DHT22;6125;59.628;17.852;2023-03-14T06:55:03;4.80;99.90
12123;DHT22;6125;59.628;17.852;2023-03-14T06:57:30;4.80;99.90
12123;DHT22;6125;59.628;17.852;2023-03-14T06:59:57;4.80;99.90
12123;DHT22;6125;59.628;17.852;2023-03-14T07:02:24;4.90;99.90
12123;DHT22;6125;59.628;17.852;2023-03-14T07:04:52;4.90;99.90
12123;DHT22;6125;59.628;17.852;2023-03-14T07:07:19;4.90;99.90
12123;DHT22;6125;59.628;17.852;2023-03-14T07:09:47;5.00;99.90
12123;DHT22;6125;59.628;17.852;2023-03-14T07:12:14;5.00;99.90
12123;DHT22;6125;59.628;17.852;2023-03-14T07:14:41;5.00;99.90
12123;DHT22;6125;59.628;17.852;2023-03-14T07:17:08;4.90;99.90
12123;DHT22;6125;59.628;17.852;2023-03-14T07:19:35;4.90;99.90
12123;DHT22;6125;59.628;17.852;2023-03-14T07:22:04;4.80;99.90
12123;DHT22;6125;59.628;17.852;2023-03-14T07:24:31;4.80;99.90
12123;DHT22;6125;59.628;17.852;2023-03-14T07:26:58;4.70;99.90
12123;DHT22;6125;59.628;17.852;2023-03-14T07:29:26;4.60;99.90
12123;DHT22;6125;59.628;17.852;2023-03-14T07:31:53;4.60;99.90
12123;DHT22;6125;59.628;17.852;2023-03-14T07:34:20;4.50;99.90
12123;DHT22;6125;59.628;17.852;2023-03-14T07:36:47;4.40;99.90
12123;DHT22;6125;59.628;17.852;2023-03-14T07:39:15;4.40;99.90
12123;DHT22;6125;59.628;17.852;2023-03-14T07:41:42;4.40;99.90
12123;DHT22;6125;59.628;17.852;2023-03-14T07:44:09;4.40;99.90
12123;DHT22;6125;59.628;17.852;2023-03-14T07:46:36;4.30;99.90
12123;DHT22;6125;59.628;17.852;2023-03-14T07:49:03;4.30;99.90
12123;DHT22;6125;59.628;17.852;2023-03-14T07:51:30;4.30;99.90
12123;DHT22;6125;59.628;17.852;2023-03-14T07:53:57;4.40;99.90
12123;DHT22;6125;59.628;17.852;2023-03-14T07:56:26;4.40;99.90
12123;DHT22;6125;59.628;17.852;2023-03-14T07:58:53;4.40;99.90
12123;DHT22;6125;59.628;17.852;2023-03-14T08:01:20;4.40;99.90
12123;DHT22;6125;59.628;17.852;2023-03-14T08:03:47;4.40;99.90
12123;DHT22;6125;59.628;17.852;2023-03-14T08:06:14;4.50;99.90
12123;DHT22;6125;59.628;17.852;2023-03-14T08:08:41;4.40;99.90
12123;DHT22;6125;59.628;17.852;2023-03-14T08:11:08;4.40;99.90
12123;DHT22;6125;59.628;17.852;2023-03-14T08:13:36;4.50;99.90
12123;DHT22;6125;59.628;17.852;2023-03-14T08:16:05;4.50;99.90
12123;DHT22;6125;59.628;17.852;2023-03-14T08:18:32;4.60;99.90
12123;DHT22;6125;59.628;17.852;2023-03-14T08:20:59;4.60;99.90
12123;DHT22;6125;59.628;17.852;2023-03-14T08:23:26;4.70;99.90
12123;DHT22;6125;59.628;17.852;2023-03-14T08:25:53;4.80;99.90
12123;DHT22;6125;59.628;17.852;2023-03-14T08:28:20;4.80;99.90
12123;DHT22;6125;59.628;17.852;2023-03-14T08:30:48;4.80;99.90
12123;DHT22;6125;59.628;17.852;2023-03-14T08:33:15;4.80;99.90
12123;DHT22;6125;59.628;17.852;2023-03-14T08:35:42;4.90;99.90
12123;DHT22;6125;59.628;17.852;2023-03-14T08:38:09;4.80;99.90
12123;DHT22;6125;59.628;17.852;2023-03-14T08:40:36;4.80;99.90
12123;DHT22;6125;59.628;17.852;2023-03-14T08:43:04;4.80;99.90
12123;DHT22;6125;59.628;17.852;2023-03-14T08:45:31;4.70;99.90
12123;DHT22;6125;59.628;17.852;2023-03-14T08:47:59;4.70;99.90
12123;DHT22;6125;59.628;17.852;2023-03-14T08:50:26;4.60;99.90
12123;DHT22;6125;59.628;17.852;2023-03-14T08:52:53;4.60;99.90
12123;DHT22;6125;59.628;17.852;2023-03-14T08:55:20;4.60;99.90
12123;DHT22;6125;59.628;17.852;2023-03-14T08:57:47;4.60;99.90
12123;DHT22;6125;59.628;17.852;2023-03-14T09:00:15;4.60;99.90
12123;DHT22;6125;59.628;17.852;2023-03-14T09:02:43;4.60;99.90
12123;DHT22;6125;59.628;17.852;2023-03-14T09:05:12;4.60;99.90
12123;DHT22;6125;59.628;17.852;2023-03-14T09:07:40;4.70;99.90
12123;DHT22;6125;59.628;17.852;2023-03-14T09:10:08;4.80;99.90
12123;DHT22;6125;59.628;17.852;2023-03-14T09:12:36;4.90;99.90
12123;DHT22;6125;59.628;17.852;2023-03-14T09:15:03;5.00;99.90
12123;DHT22;6125;59.628;17.852;2023-03-14T09:17:31;5.00;99.90
12123;DHT22;6125;59.628;17.852;2023-03-14T09:19:58;5.10;99.90
12123;DHT22;6125;59.628;17.852;2023-03-14T09:22:26;5.30;99.90
12123;DHT22;6125;59.628;17.852;2023-03-14T09:24:53;5.40;99.90
12123;DHT22;6125;59.628;17.852;2023-03-14T09:27:20;5.40;99.90
12123;DHT22;6125;59.628;17.852;2023-03-14T09:29:47;5.30;99.90
12123;DHT22;6125;59.628;17.852;2023-03-14T09:32:14;5.30;99.90
12123;DHT22;6125;59.628;17.852;2023-03-14T09:34:41;5.30;99.90
12123;DHT22;6125;59.628;17.852;2023-03-14T09:37:08;5.30;99.90
12123;DHT22;6125;59.628;17.852;2023-03-14T09:39:36;5.30;99.90
12123;DHT22;6125;59.628;17.852;2023-03-14T09:42:06;5.30;99.90
12123;DHT22;6125;59.628;17.852;2023-03-14T09:44:37;5.30;99.90
12123;DHT22;6125;59.628;17.852;2023-03-14T09:47:09;5.30;99.90
12123;DHT22;6125;59.628;17.852;2023-03-14T09:49:38;5.30;99.90
12123;DHT22;6125;59.628;17.852;2023-03-14T09:52:12;5.30;99.90
12123;DHT22;6125;59.628;17.852;2023-03-14T09:54:44;5.30;99.90
12123;DHT22;6125;59.628;17.852;2023-03-14T09:57:14;5.40;99.90
12123;DHT22;6125;59.628;17.852;2023-03-14T09:59:43;5.50;99.90
12123;DHT22;6125;59.628;17.852;2023-03-14T10:02:15;5.60;99.90
12123;DHT22;6125;59.628;17.852;2023-03-14T10:04:45;5.80;99.90
12123;DHT22;6125;59.628;17.852;2023-03-14T10:07:14;5.90;99.90
12123;DHT22;6125;59.628;17.852;2023-03-14T10:09:45;6.10;99.90
12123;DHT22;6125;59.628;17.852;2023-03-14T10:12:14;6.10;99.90
12123;DHT22;6125;59.628;17.852;2023-03-14T10:14:46;6.10;99.90
12123;DHT22;6125;59.628;17.852;2023-03-14T10:17:15;6.20;99.90
12123;DHT22;6125;59.628;17.852;2023-03-14T10:19:55;6.30;99.90
12123;DHT22;6125;59.628;17.852;2023-03-14T10:22:24;6.50;99.90
12123;DHT22;6125;59.628;17.852;2023-03-14T10:24:55;6.60;99.90
12123;DHT22;6125;59.628;17.852;2023-03-14T10:27:29;6.80;99.90
12123;DHT22;6125;59.628;17.852;2023-03-14T10:29:57;6.90;99.90
12123;DHT22;6125;59.628;17.852;2023-03-14T10:32:33;6.90;99.90
12123;DHT22;6125;59.628;17.852;2023-03-14T10:35:19;7.00;99.90
12123;DHT22;6125;59.628;17.852;2023-03-14T10:37:56;7.00;99.90
12123;DHT22;6125;59.628;17.852;2023-03-14T10:40:28;7.00;99.90
12123;DHT22;6125;59.628;17.852;2023-03-14T10:42:58;7.00;99.90
12123;DHT22;6125;59.628;17.852;2023-03-14T10:45:31;7.00;99.90
12123;DHT22;6125;59.628;17.852;2023-03-14T10:48:05;7.10;99.90
12123;DHT22;6125;59.628;17.852;2023-03-14T10:50:33;7.10;99.90
12123;DHT22;6125;59.628;17.852;2023-03-14T10:53:02;7.10;99.90
12123;DHT22;6125;59.628;17.852;2023-03-14T10:55:41;7.10;99.90
12123;DHT22;6125;59.628;17.852;2023-03-14T10:58:22;6.90;99.90
12123;DHT22;6125;59.628;17.852;2023-03-14T11:00:55;6.70;99.90
12123;DHT22;6125;59.628;17.852;2023-03-14T11:03:26;6.60;99.90
12123;DHT22;6125;59.628;17.852;2023-03-14T11:05:57;6.60;99.90
12123;DHT22;6125;59.628;17.852;2023-03-14T11:08:31;6.70;99.90
12123;DHT22;6125;59.628;17.852;2023-03-14T11:11:11;6.80;99.90
12123;DHT22;6125;59.628;17.852;2023-03-14T11:13:48;6.90;99.90
12123;DHT22;6125;59.628;17.852;2023-03-14T11:16:25;7.10;99.90
12123;DHT22;6125;59.628;17.852;2023-03-14T11:19:07;7.20;99.90
12123;DHT22;6125;59.628;17.852;2023-03-14T11:21:43;7.40;99.90
12123;DHT22;6125;59.628;17.852;2023-03-14T11:24:23;7.60;99.90
12123;DHT22;6125;59.628;17.852;2023-03-14T11:26:57;7.70;99.90
12123;DHT22;6125;59.628;17.852;2023-03-14T11:29:34;7.90;99.90
12123;DHT22;6125;59.628;17.852;2023-03-14T11:32:13;8.00;99.90
12123;DHT22;6125;59.628;17.852;2023-03-14T11:34:44;8.20;99.90
12123;DHT22;6125;59.628;17.852;2023-03-14T11:37:20;8.20;99.90
12123;DHT22;6125;59.628;17.852;2023-03-14T11:39:56;8.30;99.90
12123;DHT22;6125;59.628;17.852;2023-03-14T11:42:29;8.30;99.90
12123;DHT22;6125;59.628;17.852;2023-03-14T11:44:59;8.40;99.90
12123;DHT22;6125;59.628;17.852;2023-03-14T11:47:29;8.50;99.90
12123;DHT22;6125;59.628;17.852;2023-03-14T11:50:00;8.50;99.90
12123;DHT22;6125;59.628;17.852;2023-03-14T11:52:32;8.40;99.90
12123;DHT22;6125;59.628;17.852;2023-03-14T11:55:04;8.40;99.90
12123;DHT22;6125;59.628;17.852;2023-03-14T11:57:34;8.40;99.90
12123;DHT22;6125;59.628;17.852;2023-03-14T12:00:05;8.30;99.90
12123;DHT22;6125;59.628;17.852;2023-03-14T12:02:47;8.20;99.90
12123;DHT22;6125;59.628;17.852;2023-03-14T12:05:32;8.20;99.90
12123;DHT22;6125;59.628;17.852;2023-03-14T12:11:09;7.80;99.90
12123;DHT22;6125;59.628;17.852;2023-03-14T12:13:39;7.60;99.90
12123;DHT22;6125;59.628;17.852;2023-03-14T12:16:18;7.40;99.90
12123;DHT22;6125;59.628;17.852;2023-03-14T12:18:46;7.20;99.90
12123;DHT22;6125;59.628;17.852;2023-03-14T12:21:13;7.00;99.90
12123;DHT22;6125;59.628;17.852;2023-03-14T12:23:43;6.90;99.90
12123;DHT22;6125;59.628;17.852;2023-03-14T12:26:16;6.80;99.90
12123;DHT22;6125;59.628;17.852;2023-03-14T12:28:49;6.80;99.90
12123;DHT22;6125;59.628;17.852;2023-03-14T12:31:36;6.70;99.90
12123;DHT22;6125;59.628;17.852;2023-03-14T12:34:24;6.60;99.90
12123;DHT22;6125;59.628;17.852;2023-03-14T12:36:59;6.50;99.90
12123;DHT22;6125;59.628;17.852;2023-03-14T12:39:37;6.30;99.90
12123;DHT22;6125;59.628;17.852;2023-03-14T12:42:07;6.20;99.90
12123;DHT22;6125;59.628;17.852;2023-03-14T12:44:42;6.20;99.90
12123;DHT22;6125;59.628;17.852;2023-03-14T12:47:48;6.20;99.90
12123;DHT22;6125;59.628;17.852;2023-03-14T12:50:25;6.30;99.90
12123;DHT22;6125;59.628;17.852;2023-03-14T12:53:37;6.20;99.90
12123;DHT22;6125;59.628;17.852;2023-03-14T12:56:24;6.20;99.90
12123;DHT22;6125;59.628;17.852;2023-03-14T12:59:13;6.10;99.90
12123;DHT22;6125;59.628;17.852;2023-03-14T13:01:53;6.10;99.90
12123;DHT22;6125;59.628;17.852;2023-03-14T13:04:27;6.10;99.90
12123;DHT22;6125;59.628;17.852;2023-03-14T13:06:56;6.10;99.90
12123;DHT22;6125;59.628;17.852;2023-03-14T13:09:53;6.20;99.90
12123;DHT22;6125;59.628;17.852;2023-03-14T13:12:28;6.10;99.90
12123;DHT22;6125;59.628;17.852;2023-03-14T13:14:59;6.00;99.90
12123;DHT22;6125;59.628;17.852;2023-03-14T13:17:32;5.90;99.90
12123;DHT22;6125;59.628;17.852;2023-03-14T13:20:03;5.70;99.90
12123;DHT22;6125;59.628;17.852;2023-03-14T13:22:34;5.60;99.90
12123;DHT22;6125;59.628;17.852;2023-03-14T13:25:06;5.50;99.90
12123;DHT22;6125;59.628;17.852;2023-03-14T13:27:35;5.40;99.90
12123;DHT22;6125;59.628;17.852;2023-03-14T13:30:13;5.30;99.90
12123;DHT22;6125;59.628;17.852;2023-03-14T13:32:44;5.20;99.90
12123;DHT22;6125;59.628;17.852;2023-03-14T13:35:18;5.10;99.90
12123;DHT22;6125;59.628;17.852;2023-03-14T13:37:45;5.10;99.90
12123;DHT22;6125;59.628;17.852;2023-03-14T13:40:28;4.90;99.90
12123;DHT22;6125;59.628;17.852;2023-03-14T13:43:02;4.90;99.90
12123;DHT22;6125;59.628;17.852;2023-03-14T13:45:29;4.80;99.90
12123;DHT22;6125;59.628;17.852;2023-03-14T13:47:58;4.70;99.90
12123;DHT22;6125;59.628;17.852;2023-03-14T13:50:25;4.70;99.90
12123;DHT22;6125;59.628;17.852;2023-03-14T13:52:56;4.70;99.90
12123;DHT22;6125;59.628;17.852;2023-03-14T13:55:23;4.70;99.90
12123;DHT22;6125;59.628;17.852;2023-03-14T13:57:52;4.60;99.90
12123;DHT22;6125;59.628;17.852;2023-03-14T14:00:22;4.60;99.90
12123;DHT22;6125;59.628;17.852;2023-03-14T14:02:53;4.50;99.90
12123;DHT22;6125;59.628;17.852;2023-03-14T14:05:22;4.40;99.90
12123;DHT22;6125;59.628;17.852;2023-03-14T14:07:50;4.30;99.90
12123;DHT22;6125;59.628;17.852;2023-03-14T14:10:18;4.30;99.90
12123;DHT22;6125;59.628;17.852;2023-03-14T14:12:48;4.20;99.90
12123;DHT22;6125;59.628;17.852;2023-03-14T14:15:20;4.10;99.90
12123;DHT22;6125;59.628;17.852;2023-03-14T14:17:50;4.00;99.90
12123;DHT22;6125;59.628;17.852;2023-03-14T14:20:26;3.90;99.90
12123;DHT22;6125;59.628;17.852;2023-03-14T14:22:58;3.80;99.90
12123;DHT22;6125;59.628;17.852;2023-03-14T14:25:26;3.70;99.90
12123;DHT22;6125;59.628;17.852;2023-03-14T14:27:53;3.70;99.90
12123;DHT22;6125;59.628;17.852;2023-03-14T14:30:29;3.70;99.90
12123;DHT22;6125;59.628;17.852;2023-03-14T14:33:16;3.70;99.90
12123;DHT22;6125;59.628;17.852;2023-03-14T14:35:52;3.60;99.90
12123;DHT22;6125;59.628;17.852;2023-03-14T14:38:21;3.40;99.90
12123;DHT22;6125;59.628;17.852;2023-03-14T14:40:50;3.30;99.90
12123;DHT22;6125;59.628;17.852;2023-03-14T14:43:21;3.20;99.90
12123;DHT22;6125;59.628;17.852;2023-03-14T14:45:50;3.20;99.90
12123;DHT22;6125;59.628;17.852;2023-03-14T14:48:21;3.00;99.90
12123;DHT22;6125;59.628;17.852;2023-03-14T14:50:55;3.00;99.90
12123;DHT22;6125;59.628;17.852;2023-03-14T14:53:26;2.90;99.90
12123;DHT22;6125;59.628;17.852;2023-03-14T14:55:55;2.90;99.90
12123;DHT22;6125;59.628;17.852;2023-03-14T14:58:25;2.80;99.90
12123;DHT22;6125;59.628;17.852;2023-03-14T15:00:56;2.70;99.90
12123;DHT22;6125;59.628;17.852;2023-03-14T15:03:26;2.60;99.90
12123;DHT22;6125;59.628;17.852;2023-03-14T15:05:55;2.60;99.90
12123;DHT22;6125;59.628;17.852;2023-03-14T15:08:24;2.50;99.90
12123;DHT22;6125;59.628;17.852;2023-03-14T15:10:52;2.50;99.90
12123;DHT22;6125;59.628;17.852;2023-03-14T15:13:19;2.40;99.90
12123;DHT22;6125;59.628;17.852;2023-03-14T15:15:46;2.40;99.90
12123;DHT22;6125;59.628;17.852;2023-03-14T15:18:15;2.40;99.90
12123;DHT22;6125;59.628;17.852;2023-03-14T15:20:43;2.30;99.90
12123;DHT22;6125;59.628;17.852;2023-03-14T15:23:13;2.30;99.90
12123;DHT22;6125;59.628;17.852;2023-03-14T15:25:41;2.20;99.90
12123;DHT22;6125;59.628;17.852;2023-03-14T15:28:20;2.10;99.90
12123;DHT22;6125;59.628;17.852;2023-03-14T15:30:48;2.10;99.90
12123;DHT22;6125;59.628;17.852;2023-03-14T15:33:16;2.10;99.90
12123;DHT22;6125;59.628;17.852;2023-03-14T15:35:43;2.10;99.90
12123;DHT22;6125;59.628;17.852;2023-03-14T15:38:20;2.10;99.90
12123;DHT22;6125;59.628;17.852;2023-03-14T15:40:48;2.10;99.90
12123;DHT22;6125;59.628;17.852;2023-03-14T15:43:16;2.20;99.90
12123;DHT22;6125;59.628;17.852;2023-03-14T15:45:43;2.20;99.90
12123;DHT22;6125;59.628;17.852;2023-03-14T15:48:14;2.30;99.90
12123;DHT22;6125;59.628;17.852;2023-03-14T15:50:42;2.30;99.90
12123;DHT22;6125;59.628;17.852;2023-03-14T15:53:09;2.30;99.90
12123;DHT22;6125;59.628;17.852;2023-03-14T15:55:37;2.30;99.90
12123;DHT22;6125;59.628;17.852;2023-03-14T15:58:04;2.20;99.90
12123;DHT22;6125;59.628;17.852;2023-03-14T16:00:32;2.20;99.90
12123;DHT22;6125;59.628;17.852;2023-03-14T16:03:00;2.10;99.90
12123;DHT22;6125;59.628;17.852;2023-03-14T16:05:27;2.10;99.90
12123;DHT22;6125;59.628;17.852;2023-03-14T16:07:54;2.10;99.90